Terminal Aerodrome Forecast
Issued by NWS

Home | Current Version | Previous Version | Text Only | Print | Product List | Glossary On
Versions: 1 2 3 4 5 6 7 8 9 10 11 12 13 14 15 16 17 18 19
000
FTUS43 KMPX 272332
TAFRWF
TAF
KRWF 272332Z 2800/2824 15011KT P6SM OVC012
     FM281000 16012KT P6SM OVC008
     FM281800 19007KT P6SM OVC015
     FM282100 VRB04KT P6SM OVC020=

USA.gov is the U.S. government's official web portal to all federal, state and local government web resources and services.